Time;durP1;ratioP1;P1;durP2;ratioP2;P2;SDS_P1;SDS_P2;PMS_P1;PMS_P2;Temp;Humidity;BMP_temperature;BMP_pressure;BME280_temperature;BME280_humidity;BME280_pressure;Samples;Min_cycle;Max_cycle;Signal;HPM_P1;HPM_P2
2022/04/04 00:00:12;;;;;;;9.63;8.77;;;;;;;1.07;79.47;99135.38;4973411;28;102646;-61
2022/04/04 00:02:41;;;;;;;8.85;8.10;;;;;;;1.25;78.96;99140.09;4958586;28;102851;-62
2022/04/04 00:05:10;;;;;;;9.97;9.07;;;;;;;1.19;78.38;99127.25;4975990;28;102681;-62
2022/04/04 00:07:40;;;;;;;9.43;8.55;;;;;;;1.20;78.38;99136.78;4975851;28;103199;-62
2022/04/04 00:10:09;;;;;;;9.37;8.57;;;;;;;1.28;78.65;99134.81;4975172;28;102622;-62
2022/04/04 00:12:37;;;;;;;10.32;9.20;;;;;;;1.13;77.45;99122.22;4956491;28;102923;-62
2022/04/04 00:15:06;;;;;;;9.55;8.75;;;;;;;1.24;77.84;99124.50;4976960;28;104128;-62
2022/04/04 00:17:34;;;;;;;9.40;8.60;;;;;;;1.29;77.92;99131.31;4974149;28;103339;-62
2022/04/04 00:20:04;;;;;;;9.70;8.80;;;;;;;1.33;77.39;99126.84;4974436;28;102648;-62
2022/04/04 00:22:32;;;;;;;8.83;8.10;;;;;;;1.32;77.55;99120.78;4960111;28;103914;-60
2022/04/04 00:25:02;;;;;;;9.93;9.02;;;;;;;1.37;76.78;99125.88;4975695;28;103717;-60
2022/04/04 00:27:32;;;;;;;10.40;9.45;;;;;;;1.13;77.27;99119.59;4975788;28;103436;-62
2022/04/04 00:30:04;;;;;;;10.43;9.43;;;;;;;0.89;78.54;99115.09;4957472;28;102718;-62
2022/04/04 00:32:32;;;;;;;10.38;9.48;;;;;;;0.88;78.64;99123.78;4973413;28;102689;-62
2022/04/04 00:35:00;;;;;;;9.50;8.60;;;;;;;1.10;78.21;99115.34;4973973;28;103944;-62
2022/04/04 00:37:28;;;;;;;9.55;8.75;;;;;;;1.12;77.75;99128.34;4973585;28;103260;-60
2022/04/04 00:39:56;;;;;;;10.83;9.73;;;;;;;1.01;77.47;99120.81;4956544;28;102871;-60
2022/04/04 00:42:26;;;;;;;10.52;9.60;;;;;;;0.74;78.30;99125.88;4955508;28;102725;-61
2022/04/04 00:44:54;;;;;;;9.23;8.43;;;;;;;0.93;79.16;99127.97;4972082;28;104225;-62
2022/04/04 00:47:22;;;;;;;10.18;9.23;;;;;;;0.99;78.93;99121.75;4976943;28;103269;-61
2022/04/04 00:49:50;;;;;;;10.68;9.68;;;;;;;0.89;78.27;99117.69;4975296;28;102785;-62
2022/04/04 00:52:18;;;;;;;10.27;9.38;;;;;;;0.84;79.05;99116.97;4975460;28;103991;-62
2022/04/04 00:54:46;;;;;;;10.77;9.77;;;;;;;0.61;79.64;99125.38;4975117;28;103210;-61
2022/04/04 00:57:15;;;;;;;12.50;11.27;;;;;;;-0.13;82.57;99124.56;4973740;28;103246;-61
2022/04/04 00:59:46;;;;;;;12.35;11.15;;;;;;;-0.19;83.86;99114.31;4958178;28;102893;-62
2022/04/04 01:02:14;;;;;;;12.25;11.15;;;;;;;-0.27;84.65;99121.44;4970190;28;103736;-61
2022/04/04 01:04:45;;;;;;;11.70;10.60;;;;;;;0.08;83.19;99124.09;4974848;28;104769;-61
2022/04/04 01:07:15;;;;;;;11.40;10.30;;;;;;;0.22;81.92;99124.63;4974656;28;104324;-62
2022/04/04 01:09:43;;;;;;;11.23;10.23;;;;;;;0.23;81.77;99121.13;4975775;28;102624;-62
2022/04/04 01:12:13;;;;;;;8.95;8.15;;;;;;;0.57;81.59;99123.72;4956899;28;104016;-62
2022/04/04 01:14:45;;;;;;;9.93;9.05;;;;;;;0.81;80.24;99122.25;4974182;28;104220;-60
2022/04/04 01:17:19;;;;;;;9.83;8.93;;;;;;;0.86;78.61;99121.22;4976358;28;103387;-60
2022/04/04 01:19:47;;;;;;;9.35;8.55;;;;;;;0.83;78.07;99115.25;4974949;28;102788;-60
2022/04/04 01:22:16;;;;;;;11.00;9.90;;;;;;;0.35;79.74;99120.81;4974330;28;103092;-62
2022/04/04 01:24:45;;;;;;;11.80;10.70;;;;;;;0.34;80.30;99119.09;4972282;28;104164;-60
2022/04/04 01:27:14;;;;;;;8.98;8.18;;;;;;;0.59;80.24;99115.00;4974984;28;103275;-60
2022/04/04 01:29:43;;;;;;;8.48;7.68;;;;;;;0.85;79.29;99103.91;4978751;28;102907;-62
2022/04/04 01:32:11;;;;;;;9.60;8.70;;;;;;;0.92;78.33;99105.47;4978481;28;102853;-62
2022/04/04 01:34:39;;;;;;;8.32;7.63;;;;;;;0.91;77.58;99105.50;4978243;28;104077;-60
2022/04/04 01:37:07;;;;;;;9.45;8.63;;;;;;;0.95;77.54;99100.19;4977203;28;103204;-60
2022/04/04 01:39:36;;;;;;;12.00;10.90;;;;;;;0.66;75.94;99096.63;4978365;28;102961;-60
2022/04/04 01:42:06;;;;;;;11.90;10.80;;;;;;;0.42;78.84;99096.38;4975285;28;103667;-62
2022/04/04 01:44:34;;;;;;;10.40;9.40;;;;;;;0.62;78.33;99095.03;4962949;28;104958;-60
2022/04/04 01:47:03;;;;;;;9.70;8.80;;;;;;;0.62;78.27;99089.81;4977531;28;103316;-60
2022/04/04 01:49:31;;;;;;;11.25;10.15;;;;;;;0.58;77.58;99094.25;4979018;28;102795;-62
2022/04/04 01:51:59;;;;;;;12.50;11.30;;;;;;;0.04;79.13;99096.47;4953510;28;102651;-61
2022/04/04 01:54:29;;;;;;;13.02;11.77;;;;;;;-0.03;80.77;99095.75;4976116;28;103492;-62
2022/04/04 01:57:07;;;;;;;9.20;8.40;;;;;;;0.26;80.74;99089.00;4975690;28;103229;-62
2022/04/04 01:59:35;;;;;;;10.43;9.43;;;;;;;0.48;79.51;99093.63;4978130;28;102605;-62
2022/04/04 02:02:04;;;;;;;10.48;9.48;;;;;;;0.38;79.04;99086.97;4955353;28;103000;-62
2022/04/04 02:04:32;;;;;;;10.27;9.38;;;;;;;0.43;78.38;99092.88;4976730;28;104014;-63
2022/04/04 02:07:00;;;;;;;9.30;8.50;;;;;;;0.47;78.83;99086.72;4955948;28;103945;-62
2022/04/04 02:09:30;;;;;;;8.88;8.07;;;;;;;0.55;78.70;99084.78;4960300;28;102771;-62
2022/04/04 02:11:58;;;;;;;9.47;8.67;;;;;;;0.63;77.73;99083.72;4956561;28;103822;-60
2022/04/04 02:14:27;;;;;;;10.50;9.55;;;;;;;0.46;77.81;99085.00;4977406;28;103841;-62
2022/04/04 02:16:55;;;;;;;11.82;10.73;;;;;;;0.08;79.36;99077.34;4976714;28;103488;-61
2022/04/04 02:19:23;;;;;;;9.73;8.82;;;;;;;0.32;79.21;99068.91;4978582;28;102761;-61
2022/04/04 02:21:55;;;;;;;11.00;10.00;;;;;;;0.24;78.52;99077.78;4960157;28;104207;-61
2022/04/04 02:24:23;;;;;;;12.10;10.93;;;;;;;0.02;77.91;99071.41;4974887;28;103926;-62
2022/04/04 02:26:54;;;;;;;12.25;11.10;;;;;;;-0.19;79.38;99067.56;4971789;28;103884;-62
2022/04/04 02:29:22;;;;;;;10.63;9.63;;;;;;;-0.02;80.14;99065.44;4959342;28;102904;-62
2022/04/04 02:31:51;;;;;;;10.25;9.30;;;;;;;0.22;79.75;99062.25;4957220;28;102721;-62
2022/04/04 02:34:19;;;;;;;8.38;7.68;;;;;;;0.37;78.90;99058.38;4958539;28;104317;-62
2022/04/04 02:36:47;;;;;;;10.52;9.43;;;;;;;0.41;78.04;99055.69;4977032;28;103321;-62
2022/04/04 02:39:17;;;;;;;11.07;9.98;;;;;;;0.20;78.26;99055.34;4956772;28;102994;-62
2022/04/04 02:41:45;;;;;;;8.57;7.77;;;;;;;0.35;78.47;99048.03;4977052;28;103713;-62
2022/04/04 02:44:13;;;;;;;8.77;7.97;;;;;;;0.44;78.38;99055.59;4975190;28;103271;-63
2022/04/04 02:46:41;;;;;;;10.63;9.70;;;;;;;0.48;77.15;99052.03;4977263;28;103227;-62
2022/04/04 02:49:14;;;;;;;10.90;9.80;;;;;;;0.43;76.93;99053.88;4974734;28;102722;-62
2022/04/04 02:51:42;;;;;;;13.43;12.13;;;;;;;-0.57;79.33;99054.63;4976958;28;102805;-62
2022/04/04 02:54:10;;;;;;;10.07;9.23;;;;;;;-0.02;80.30;99050.72;4976421;28;104427;-61
2022/04/04 02:56:41;;;;;;;10.25;9.32;;;;;;;0.26;79.34;99050.88;4975271;28;104249;-61
2022/04/04 02:59:10;;;;;;;9.00;8.20;;;;;;;0.38;78.20;99045.38;4976237;28;102811;-61
2022/04/04 03:01:38;;;;;;;11.37;10.30;;;;;;;0.33;77.34;99042.03;4977481;28;102839;-61
2022/04/04 03:04:10;;;;;;;10.15;9.20;;;;;;;0.14;78.02;99040.78;4969920;28;104207;-61
2022/04/04 03:06:39;;;;;;;12.70;11.50;;;;;;;-0.05;78.16;99044.72;4976541;28;103176;-60
2022/04/04 03:09:09;;;;;;;12.60;11.47;;;;;;;0.02;78.49;99041.09;4976195;28;102847;-61
2022/04/04 03:11:38;;;;;;;12.82;11.60;;;;;;;-0.26;79.18;99045.25;4974757;28;104307;-62
2022/04/04 03:14:06;;;;;;;10.20;9.30;;;;;;;0.00;79.88;99038.53;4975163;28;103314;-62
2022/04/04 03:16:34;;;;;;;10.82;9.93;;;;;;;0.11;79.52;99040.03;4973323;28;103206;-63
2022/04/04 03:19:03;;;;;;;13.00;11.77;;;;;;;-0.18;79.96;99039.00;4976014;28;102642;-60
2022/04/04 03:21:31;;;;;;;10.52;9.60;;;;;;;-0.06;80.55;99037.84;4976281;28;103936;-62
2022/04/04 03:24:02;;;;;;;12.90;11.70;;;;;;;-0.08;79.63;99039.59;4955100;28;103365;-62
2022/04/04 03:26:32;;;;;;;9.57;8.70;;;;;;;0.18;80.48;99037.22;4971333;28;103618;-62
2022/04/04 03:29:01;;;;;;;10.38;9.48;;;;;;;0.25;79.46;99033.59;4978814;28;102712;-62
2022/04/04 03:31:29;;;;;;;10.23;9.32;;;;;;;0.31;79.44;99037.78;4961129;28;102958;-62
2022/04/04 03:33:57;;;;;;;11.37;10.37;;;;;;;0.30;78.75;99031.72;4958897;28;103768;-62
2022/04/04 03:36:25;;;;;;;10.68;9.73;;;;;;;0.32;79.53;99040.31;4975489;28;103217;-62
2022/04/04 03:38:53;;;;;;;11.90;10.80;;;;;;;0.08;80.74;99035.75;4974046;28;102724;-62
2022/04/04 03:41:23;;;;;;;10.98;10.07;;;;;;;0.14;79.84;99025.19;4975204;28;103766;-62
2022/04/04 03:43:51;;;;;;;10.55;9.57;;;;;;;0.25;79.76;99031.00;4975653;28;103969;-62
2022/04/04 03:46:18;;;;;;;11.55;10.45;;;;;;;0.35;79.43;99022.06;4975320;28;103216;-62
2022/04/04 03:48:47;;;;;;;11.57;10.57;;;;;;;0.22;80.09;99022.41;4975301;28;103035;-62
2022/04/04 03:51:15;;;;;;;11.20;10.20;;;;;;;0.17;80.50;99025.13;4974623;28;103012;-61
2022/04/04 03:53:43;;;;;;;14.65;13.35;;;;;;;-0.53;82.48;99035.50;4955459;28;104288;-65
2022/04/04 03:56:11;;;;;;;12.73;11.60;;;;;;;-0.21;83.28;99028.69;4956140;28;103494;-64
2022/04/04 03:58:41;;;;;;;13.85;12.63;;;;;;;-0.09;82.29;99033.59;4974139;28;102640;-65
2022/04/04 04:01:09;;;;;;;13.90;12.60;;;;;;;-0.27;82.86;99040.94;4959896;28;103933;-62
2022/04/04 04:03:37;;;;;;;12.88;11.55;;;;;;;-0.08;82.67;99039.59;4973425;28;104086;-63
2022/04/04 04:06:14;;;;;;;15.20;13.63;;;;;;;-0.25;82.38;99041.75;4958873;28;104105;-63
2022/04/04 04:08:44;;;;;;;11.93;10.83;;;;;;;0.09;81.99;99031.38;4975754;28;102913;-62
2022/04/04 04:11:14;;;;;;;15.05;13.57;;;;;;;0.17;82.13;99019.91;4976674;28;102697;-64
2022/04/04 04:13:44;;;;;;;18.48;16.88;;;;;;;0.07;82.08;99023.66;4975173;28;103950;-64
2022/04/04 04:16:13;;;;;;;16.13;14.63;;;;;;;0.05;82.63;99017.66;4973710;28;103215;-64
2022/04/04 04:18:44;;;;;;;13.48;12.18;;;;;;;0.32;82.23;99013.47;4955364;28;103020;-64
2022/04/04 04:21:12;;;;;;;13.40;12.20;;;;;;;0.28;81.30;99011.88;4975263;28;103982;-65
2022/04/04 04:23:44;;;;;;;14.77;13.48;;;;;;;0.31;81.45;99010.00;4974021;28;103168;-63
2022/04/04 04:26:13;;;;;;;15.30;13.90;;;;;;;0.04;81.05;99015.94;4957007;28;104200;-63
2022/04/04 04:28:45;;;;;;;16.15;14.73;;;;;;;-0.02;80.27;99013.47;4957285;28;102979;-62
2022/04/04 04:31:14;;;;;;;14.43;13.13;;;;;;;0.07;81.23;99013.25;4956461;28;102693;-62
2022/04/04 04:33:42;;;;;;;17.58;15.85;;;;;;;-0.24;81.95;99017.50;4964008;28;103462;-62
2022/04/04 04:36:11;;;;;;;17.57;15.87;;;;;;;-0.16;81.60;99020.75;4965187;28;105076;-63
2022/04/04 04:38:41;;;;;;;15.77;14.18;;;;;;;0.09;81.34;99016.66;4967293;28;103374;-63
2022/04/04 04:41:09;;;;;;;15.20;13.80;;;;;;;-0.02;80.70;99013.47;4972048;28;103207;-62
2022/04/04 04:43:39;;;;;;;15.95;14.45;;;;;;;0.00;80.96;99016.91;4953419;28;104040;-63
2022/04/04 04:46:09;;;;;;;14.82;13.43;;;;;;;0.17;81.68;99009.53;4971187;28;103200;-63
2022/04/04 04:48:37;;;;;;;15.77;14.27;;;;;;;0.23;81.32;99014.56;4975200;28;102806;-62
2022/04/04 04:51:05;;;;;;;14.55;13.25;;;;;;;0.13;81.09;99002.72;4976249;28;102569;-62
2022/04/04 04:53:34;;;;;;;12.73;11.53;;;;;;;0.26;81.48;99009.28;4978197;28;104118;-62
2022/04/04 04:56:02;;;;;;;12.82;11.73;;;;;;;0.42;80.60;99015.78;4960171;28;104204;-62
2022/04/04 04:58:30;;;;;;;13.10;11.90;;;;;;;0.43;80.20;99009.69;4958887;28;102702;-62
2022/04/04 05:00:58;;;;;;;12.90;11.70;;;;;;;0.46;79.57;99012.22;4975742;28;103954;-63
2022/04/04 05:03:27;;;;;;;12.45;11.45;;;;;;;0.41;80.35;99011.50;4974825;28;103786;-62
2022/04/04 05:05:55;;;;;;;12.75;11.60;;;;;;;0.46;79.76;99000.97;4960732;28;103264;-63
2022/04/04 05:08:24;;;;;;;13.07;11.88;;;;;;;0.48;78.96;99000.03;4978674;28;102875;-63
2022/04/04 05:10:52;;;;;;;12.65;11.55;;;;;;;0.55;79.21;99004.19;4960459;28;103916;-62
2022/04/04 05:13:21;;;;;;;13.00;11.88;;;;;;;0.60;79.14;99001.44;4973524;28;103330;-63
2022/04/04 05:15:50;;;;;;;12.90;11.70;;;;;;;0.54;78.94;98996.41;4975055;28;103219;-62
2022/04/04 05:18:18;;;;;;;13.32;12.07;;;;;;;0.57;78.66;98999.78;4953763;28;102917;-63
2022/04/04 05:20:47;;;;;;;12.50;11.30;;;;;;;0.62;78.56;99001.41;4971917;28;104134;-63
2022/04/04 05:23:15;;;;;;;12.88;11.68;;;;;;;0.62;77.99;98997.03;4978167;28;103779;-63
2022/04/04 05:25:44;;;;;;;12.63;11.45;;;;;;;0.62;78.01;99004.84;4956656;28;104108;-63
2022/04/04 05:28:12;;;;;;;13.43;12.23;;;;;;;0.59;78.44;99003.19;4958645;28;103026;-63
2022/04/04 05:30:41;;;;;;;11.75;10.65;;;;;;;0.68;77.83;99001.22;4956435;28;103002;-63
2022/04/04 05:33:10;;;;;;;10.93;9.93;;;;;;;0.80;77.84;98995.69;4940018;28;103338;-64
2022/04/04 05:35:38;;;;;;;10.80;9.90;;;;;;;0.88;77.43;99004.13;4953042;28;104140;-64
2022/04/04 05:38:07;;;;;;;12.18;11.05;;;;;;;0.89;77.23;99005.81;4967594;28;102707;-64
2022/04/04 05:40:35;;;;;;;11.40;10.30;;;;;;;0.81;76.63;98998.25;4954080;28;103905;-64
2022/04/04 05:43:03;;;;;;;11.17;10.07;;;;;;;0.91;76.59;99007.47;4952102;28;104305;-65
2022/04/04 05:45:31;;;;;;;11.18;10.15;;;;;;;0.95;76.77;99005.66;4969447;28;103182;-64
2022/04/04 05:47:59;;;;;;;11.57;10.55;;;;;;;0.94;76.67;99003.94;4960822;28;102549;-64
2022/04/04 05:50:27;;;;;;;12.20;11.10;;;;;;;0.95;76.50;99010.84;4970846;28;103198;-64
2022/04/04 05:52:55;;;;;;;12.48;11.38;;;;;;;0.82;76.81;99006.88;4954113;28;103329;-64
2022/04/04 05:55:25;;;;;;;12.85;11.65;;;;;;;0.95;77.59;99003.06;4970509;28;103653;-64
2022/04/04 05:57:53;;;;;;;12.63;11.37;;;;;;;0.96;76.39;98995.19;4955338;28;103114;-65
2022/04/04 06:00:21;;;;;;;11.95;10.85;;;;;;;0.81;76.32;99005.19;4968428;28;102979;-64
2022/04/04 06:02:50;;;;;;;11.85;10.65;;;;;;;1.00;77.07;99002.03;4972646;28;103753;-64
2022/04/04 06:05:18;;;;;;;11.60;10.50;;;;;;;1.29;76.18;99000.31;4971290;28;103421;-64
2022/04/04 06:07:47;;;;;;;11.57;10.47;;;;;;;1.21;76.13;99004.91;4976516;28;103721;-65
2022/04/04 06:10:16;;;;;;;12.52;11.27;;;;;;;1.28;75.44;99004.66;4976143;28;104397;-64
2022/04/04 06:12:45;;;;;;;12.40;11.10;;;;;;;1.21;76.48;98995.31;4977477;28;103929;-62
2022/04/04 06:15:15;;;;;;;12.95;11.43;;;;;;;1.08;76.17;98991.38;4977464;28;103338;-62
2022/04/04 06:17:44;;;;;;;12.30;11.10;;;;;;;1.27;75.91;99002.94;4962496;28;102720;-63
2022/04/04 06:20:13;;;;;;;12.25;11.05;;;;;;;1.27;76.57;99002.94;4975129;28;103154;-62
2022/04/04 06:22:41;;;;;;;12.50;11.30;;;;;;;1.40;76.04;99001.69;4977582;28;104410;-62
2022/04/04 06:25:13;;;;;;;12.15;10.95;;;;;;;1.38;75.10;99003.47;4976977;28;103234;-62
2022/04/04 06:27:42;;;;;;;12.33;11.13;;;;;;;1.44;75.17;98995.47;4974684;28;102768;-63
2022/04/04 06:30:13;;;;;;;11.97;10.87;;;;;;;1.49;74.69;98988.34;4978190;28;103816;-65
2022/04/04 06:32:44;;;;;;;11.88;10.77;;;;;;;1.65;74.63;98994.81;4977000;28;103269;-63
2022/04/04 06:35:13;;;;;;;11.38;10.27;;;;;;;1.44;75.20;99000.69;4958352;28;104815;-63
2022/04/04 06:37:41;;;;;;;11.10;10.10;;;;;;;1.83;74.83;98988.13;4955039;28;103039;-63
2022/04/04 06:40:11;;;;;;;11.70;10.65;;;;;;;1.93;73.34;98994.75;4970907;28;104957;-62
2022/04/04 06:42:41;;;;;;;11.40;10.32;;;;;;;1.80;72.19;98988.22;4975654;28;104148;-63
2022/04/04 06:45:12;;;;;;;12.07;11.00;;;;;;;1.82;73.11;98990.81;4971490;28;103473;-62
2022/04/04 06:47:41;;;;;;;11.30;10.30;;;;;;;1.67;73.91;98985.19;4957020;28;102967;-64
2022/04/04 06:50:10;;;;;;;11.18;10.10;;;;;;;1.84;73.51;98989.84;4953399;28;102853;-64
2022/04/04 06:52:38;;;;;;;11.75;10.65;;;;;;;1.81;71.84;98987.34;4973359;28;104031;-63
2022/04/04 06:55:26;;;;;;;11.02;10.00;;;;;;;2.18;71.76;98986.97;4971796;28;103608;-63
2022/04/04 06:57:54;;;;;;;13.48;9.90;;;;;;;2.20;70.56;98983.41;4976607;28;102769;-63
2022/04/04 07:00:24;;;;;;;10.70;9.60;;;;;;;2.28;70.29;98984.00;4972726;28;103985;-63
2022/04/04 07:02:53;;;;;;;10.57;9.57;;;;;;;2.33;70.41;98976.00;4957898;28;104253;-62
2022/04/04 07:05:23;;;;;;;11.20;10.20;;;;;;;2.29;69.94;98977.03;4959647;28;103205;-62
2022/04/04 07:07:51;;;;;;;12.40;10.00;;;;;;;2.26;69.49;98987.56;4975779;28;102683;-62
2022/04/04 07:10:19;;;;;;;11.17;10.07;;;;;;;2.33;70.24;98982.06;4970544;28;102597;-62
2022/04/04 07:12:47;;;;;;;10.57;9.57;;;;;;;2.62;70.07;98983.66;4975471;28;104045;-62
2022/04/04 07:15:15;;;;;;;10.25;9.23;;;;;;;2.66;70.69;98976.56;4976585;28;103333;-62
2022/04/04 07:17:45;;;;;;;10.23;9.18;;;;;;;2.90;68.43;98971.31;4977273;28;102977;-62
2022/04/04 07:20:13;;;;;;;9.82;8.77;;;;;;;3.16;67.36;98972.09;4969806;28;102818;-62
2022/04/04 07:22:44;;;;;;;9.27;8.38;;;;;;;3.75;65.83;98961.88;4957019;28;104162;-63
2022/04/04 07:25:14;;;;;;;9.52;8.55;;;;;;;3.61;64.69;98964.22;4976672;28;104426;-63
2022/04/04 07:27:46;;;;;;;9.90;8.43;;;;;;;3.69;64.54;98959.53;4975093;28;102970;-61
2022/04/04 07:30:17;;;;;;;8.98;8.18;;;;;;;3.77;63.83;98960.91;4977186;28;103415;-63
2022/04/04 07:32:47;;;;;;;7.28;6.55;;;;;;;4.14;58.16;98959.38;4953893;28;104013;-62
2022/04/04 07:35:16;;;;;;;7.20;6.50;;;;;;;4.35;58.90;98953.25;4976904;28;103305;-62
2022/04/04 07:37:48;;;;;;;6.93;6.22;;;;;;;4.77;58.56;98951.38;4974163;28;102974;-62
2022/04/04 07:40:19;;;;;;;6.85;6.25;;;;;;;5.06;58.34;98953.50;4973734;28;103108;-62
2022/04/04 07:42:48;;;;;;;7.47;6.78;;;;;;;5.24;57.37;98942.16;4975903;28;103247;-63
2022/04/04 07:45:17;;;;;;;7.50;6.70;;;;;;;5.31;56.95;98952.34;4957006;28;104496;-62
2022/04/04 07:47:49;;;;;;;9.52;6.63;;;;;;;5.63;57.20;98949.03;4976238;28;103155;-63
2022/04/04 07:50:17;;;;;;;7.40;6.70;;;;;;;5.61;56.55;98954.38;4974597;28;103425;-63
2022/04/04 07:52:45;;;;;;;8.45;7.45;;;;;;;5.91;57.65;98946.81;4975528;28;103720;-63
2022/04/04 07:55:13;;;;;;;7.93;7.07;;;;;;;6.20;55.83;98940.09;4976309;28;103379;-63
2022/04/04 07:57:42;;;;;;;7.93;7.22;;;;;;;6.22;56.77;98943.50;4972730;28;102524;-63
2022/04/04 08:00:14;;;;;;;8.83;7.50;;;;;;;6.74;54.69;98931.13;4976245;28;102904;-63
2022/04/04 08:02:47;;;;;;;7.63;6.68;;;;;;;6.92;53.42;98940.66;4957064;28;104079;-64
2022/04/04 08:05:16;;;;;;;8.10;6.77;;;;;;;6.81;52.58;98937.75;4974494;28;103198;-63
2022/04/04 08:07:47;;;;;;;7.53;6.82;;;;;;;7.16;53.66;98923.53;4974150;28;102680;-63
2022/04/04 08:10:16;;;;;;;7.93;7.22;;;;;;;7.09;52.42;98932.72;4975356;28;103048;-63
2022/04/04 08:12:45;;;;;;;6.57;5.95;;;;;;;7.21;48.02;98925.94;4972084;28;103260;-63
2022/04/04 08:15:13;;;;;;;6.93;5.85;;;;;;;8.03;47.03;98924.69;4965661;28;103254;-63
2022/04/04 08:17:41;;;;;;;6.13;5.63;;;;;;;7.76;45.69;98918.41;4956589;28;102754;-63
2022/04/04 08:20:12;;;;;;;6.47;5.83;;;;;;;7.46;44.73;98913.13;4974434;28;103712;-64
2022/04/04 08:22:41;;;;;;;7.85;7.07;;;;;;;8.37;46.61;98916.53;4972891;28;103204;-63
2022/04/04 08:25:09;;;;;;;6.30;5.70;;;;;;;8.67;43.96;98909.41;4972473;28;103201;-64
2022/04/04 08:27:38;;;;;;;6.20;5.70;;;;;;;8.94;43.59;98906.03;4971419;28;102620;-63
2022/04/04 08:30:08;;;;;;;6.47;5.75;;;;;;;9.14;41.35;98897.72;4957534;28;105047;-66
2022/04/04 08:32:37;;;;;;;7.10;6.50;;;;;;;8.53;42.66;98901.50;4954464;28;104261;-66
2022/04/04 08:35:07;;;;;;;7.10;6.40;;;;;;;8.83;42.28;98892.69;4972650;28;103267;-66
2022/04/04 08:37:38;;;;;;;7.15;6.50;;;;;;;8.70;41.17;98898.69;4976495;28;102742;-66
2022/04/04 08:40:10;;;;;;;7.00;6.40;;;;;;;9.48;40.25;98889.34;4962166;28;102931;-64
2022/04/04 08:42:38;;;;;;;6.60;6.05;;;;;;;8.85;42.17;98880.25;4961747;28;104271;-64
2022/04/04 08:45:08;;;;;;;7.07;6.40;;;;;;;9.58;42.16;98895.72;4978080;28;103461;-65
2022/04/04 08:47:38;;;;;;;6.35;5.85;;;;;;;10.16;41.39;98889.25;4978148;28;102893;-66
2022/04/04 08:50:06;;;;;;;6.70;6.20;;;;;;;10.06;41.25;98885.50;4980169;28;104323;-66
2022/04/04 08:52:37;;;;;;;6.60;5.90;;;;;;;9.89;40.40;98876.91;4957878;28;104255;-67
2022/04/04 08:55:06;;;;;;;6.80;6.20;;;;;;;9.98;39.36;98871.97;4957462;28;103263;-66
2022/04/04 08:57:34;;;;;;;6.18;5.70;;;;;;;10.14;39.82;98875.28;4956656;28;102593;-65
2022/04/04 09:00:03;;;;;;;6.03;5.53;;;;;;;9.80;38.95;98872.25;4961351;28;102872;-64
2022/04/04 09:02:32;;;;;;;6.57;5.70;;;;;;;9.53;38.10;98881.97;4956842;28;103446;-65
2022/04/04 09:05:05;;;;;;;5.50;5.00;;;;;;;9.48;39.36;98864.75;4974162;28;104364;-65
2022/04/04 09:07:33;;;;;;;5.80;5.30;;;;;;;9.59;37.99;98865.75;4976074;28;102657;-66
2022/04/04 09:10:02;;;;;;;6.07;5.60;;;;;;;9.81;38.11;98862.53;4961285;28;102726;-65
2022/04/04 09:12:32;;;;;;;5.85;5.45;;;;;;;10.05;36.97;98855.59;4978969;28;103202;-64
2022/04/04 09:15:00;;;;;;;6.00;5.50;;;;;;;9.97;38.00;98863.19;4978218;28;103205;-64
2022/04/04 09:17:32;;;;;;;6.97;5.90;;;;;;;9.34;38.58;98860.41;4979289;28;103066;-64
2022/04/04 09:20:09;;;;;;;5.45;4.97;;;;;;;10.09;37.62;98845.69;4978696;28;103705;-64
2022/04/04 09:22:51;;;;;;;4.97;4.47;;;;;;;10.71;37.71;98834.31;4956941;28;103251;-66
2022/04/04 09:25:31;;;;;;;5.60;4.90;;;;;;;10.41;38.06;98839.09;4979772;28;103229;-66
2022/04/04 09:28:14;;;;;;;4.80;4.43;;;;;;;10.74;38.49;98831.44;4979564;28;102971;-67
2022/04/04 09:30:43;;;;;;;5.00;4.60;;;;;;;11.29;37.14;98823.00;4960578;28;103738;-63
2022/04/04 09:33:15;;;;;;;4.27;3.97;;;;;;;10.33;37.38;98828.22;4978799;28;103996;-62
2022/04/04 09:35:46;;;;;;;4.67;4.23;;;;;;;10.22;37.73;98820.16;4968749;28;103365;-63
2022/04/04 09:38:16;;;;;;;6.23;4.40;;;;;;;9.74;38.09;98819.06;4978672;28;102647;-63
2022/04/04 09:40:45;;;;;;;4.37;3.97;;;;;;;10.15;37.47;98808.34;4977699;28;104071;-63
2022/04/04 09:43:14;;;;;;;4.70;4.30;;;;;;;10.12;39.13;98813.81;4975645;28;103968;-63
2022/04/04 09:45:44;;;;;;;4.77;4.37;;;;;;;10.28;37.91;98804.75;4973698;28;102979;-63
2022/04/04 09:48:13;;;;;;;5.60;4.37;;;;;;;10.94;37.99;98799.16;4978370;28;103263;-63
2022/04/04 09:50:47;;;;;;;4.63;4.23;;;;;;;10.06;38.84;98801.03;4960228;28;103860;-63
2022/04/04 09:53:16;;;;;;;5.03;4.50;;;;;;;9.91;39.97;98790.56;4958987;28;104067;-63
2022/04/04 09:55:48;;;;;;;7.20;4.57;;;;;;;10.24;39.63;98781.31;4977883;28;103393;-63
2022/04/04 09:58:17;;;;;;;;;;;;;;;10.71;39.60;98786.75;4979297;28;102931;-63
2022/04/04 10:00:48;;;;;;;;;;;;;;;10.25;40.67;98777.72;4961850;28;102720;-63
2022/04/04 10:03:16;;;;;;;;;;;;;;;10.16;39.50;98773.91;4977891;28;103323;-63
2022/04/04 10:05:45;;;;;;;;;;;;;;;10.03;39.78;98777.47;4979592;28;103250;-63
2022/04/04 10:08:14;;;;;;;;;;;;;;;10.56;41.55;98760.53;4978604;28;103111;-63
2022/04/04 10:10:42;;;;;;;;;;;;;;;10.59;39.62;98758.53;4976617;28;104304;-63
2022/04/04 10:13:13;;;;;;;;;;;;;;;10.14;39.63;98751.22;4956632;28;102887;-63
2022/04/04 10:15:41;;;;;;;;;;;;;;;10.62;41.93;98755.69;4953979;28;103057;-64
2022/04/04 10:18:09;;;;;;;;;;;;;;;10.65;43.24;98744.03;4958608;28;103396;-64
2022/04/04 10:20:39;;;;;;;;;;;;;;;10.68;42.08;98738.53;4959089;28;102967;-64
2022/04/04 10:23:12;;;;;;;;;;;;;;;10.69;40.59;98734.97;4979058;28;103256;-64
2022/04/04 10:25:41;;;;;;;;;;;;;;;10.76;41.33;98744.97;4958263;28;103158;-64
2022/04/04 10:28:08;;;;;;;;;;;;;;;10.02;41.60;98733.56;4978376;28;103920;-63
2022/04/04 10:30:40;;;;;;;;;;;;;;;10.02;40.95;98733.56;4976425;28;102689;-64
2022/04/04 10:33:17;;;;;;;;;;;;;;;9.97;42.29;98733.03;4961029;28;103241;-64
2022/04/04 10:35:58;;;;;;;;;;;;;;;10.50;40.56;98724.84;4961723;28;103393;-63
2022/04/04 10:38:29;;;;;;;;;;;;;;;10.39;40.83;98724.78;4960783;28;102741;-64
2022/04/04 10:40:57;;;;;;;;;;;;;;;9.87;43.16;98723.13;4980077;28;103913;-64
2022/04/04 10:43:24;;;;;;;;;;;;;;;9.62;42.27;98715.22;4977700;28;103307;-64
2022/04/04 10:45:59;;;;;;;;;;;;;;;9.99;43.54;98705.59;4971456;28;103211;-65
2022/04/04 10:48:28;;;;;;;;;;;;;;;10.68;40.85;98705.03;4972370;28;102581;-64
2022/04/04 10:51:01;;;;;;;;;;;;;;;9.39;41.82;98713.28;4957093;28;103933;-64
2022/04/04 10:53:36;;;;;;;;;;;;;;;9.50;42.17;98705.47;4974244;28;104593;-64
2022/04/04 10:56:05;;;;;;;;;;;;;;;10.56;41.50;98695.34;4976708;28;103223;-64
2022/04/04 10:58:33;;;;;;;;;;;;;;;10.71;40.45;98691.63;4977314;28;102652;-64
2022/04/04 11:01:09;;;;;;;;;;;;;;;10.98;41.53;98684.28;4972585;28;103619;-62
2022/04/04 11:03:38;;;;;;;;;;;;;;;10.88;41.01;98667.44;4975481;28;103028;-63
2022/04/04 11:09:03;;;;;;;;;;;;;;;10.88;39.14;98667.44;4965275;28;102723;-64
2022/04/04 11:11:44;;;;;;;;;;;;;;;10.78;40.10;98655.84;4975972;28;104119;-64
2022/04/04 11:14:12;;;;;;;;;;;;;;;10.15;39.35;98660.50;4976482;28;103591;-64
2022/04/04 11:16:58;;;;;;;;;;;;;;;10.36;40.67;98651.03;4977579;28;103138;-64
2022/04/04 11:19:30;;;;;;;;;;;;;;;10.78;39.67;98653.19;4975309;28;102689;-64
2022/04/04 11:21:58;;;;;;;;;;;;;;;10.74;40.99;98649.13;4972444;28;103868;-63
2022/04/04 11:24:31;;;;;;;;;;;;;;;11.26;39.17;98648.69;4957398;28;103258;-64
2022/04/04 11:26:59;;;;;;;;;;;;;;;10.65;40.20;98636.56;4977244;28;103170;-64
2022/04/04 11:29:29;;;;;;;;;;;;;;;11.05;40.14;98637.94;4975437;28;102755;-63
2022/04/04 11:31:57;;;;;;;;;;;;;;;11.46;39.22;98626.84;4964173;28;103146;-63
2022/04/04 11:34:30;;;;;;;;;;;;;;;11.79;37.93;98622.59;4960429;28;103530;-62
2022/04/04 11:37:04;;;;;;;;;;;;;;;12.06;39.32;98615.97;4967232;28;103002;-63
2022/04/04 11:39:35;;;;;;;;;;;;;;;11.06;38.95;98602.59;4967798;28;102578;-64
2022/04/04 11:42:07;;;;;;;;;;;;;;;11.00;40.03;98602.25;4971062;28;103917;-64
2022/04/04 11:44:45;;;;;;;;;;;;;;;11.03;38.86;98600.19;4970355;28;103297;-65
2022/04/04 11:47:13;;;;;;;;;;;;;;;10.52;38.99;98596.16;4960634;28;103365;-64